This is the latest recevied weather packets stored in our database for station/object KD4KKF. If no packets are shown the sender has not sent any weather packets the latest 10 day(s).
| Time | Temp. | Humidity | Pressure | Rain* | Wind** | Luminosity | Snow |
|---|---|---|---|---|---|---|---|
| 1777824944 | 18.33° C | 45% | 1021.8 hPa | 0 mm | - | 745 W/m² | - |
| 1777824640 | 17.78° C | 48% | 1021.7 hPa | 0 mm | - | 725 W/m² | - |
| 1777824338 | 18.33° C | 47% | 1021.9 hPa | 0 mm | - | 752 W/m² | - |
| 1777824033 | 18.33° C | 46% | 1021.8 hPa | 0 mm | - | 797 W/m² | - |
| 1777823730 | 17.78° C | 48% | 1021.7 hPa | 0 mm | - | 756 W/m² | - |
| 1777823427 | 17.22° C | 50% | 1021.7 hPa | 0 mm | - | 741 W/m² | - |
| 1777823124 | 17.22° C | 51% | 1021.8 hPa | 0 mm | - | 743 W/m² | - |
| 1777822822 | 16.67° C | 52% | 1021.9 hPa | 0 mm | - | 785 W/m² | - |
| 1777822520 | 17.78° C | 48% | 1022.2 hPa | 0 mm | - | 782 W/m² | - |
| 1777822217 | 17.22° C | 50% | 1021.8 hPa | 0 mm | - | 765 W/m² | - |
| 1777821915 | 16.67° C | 51% | 1021.9 hPa | 0 mm | - | 797 W/m² | - |
| 1777821612 | 17.22° C | 50% | 1022.1 hPa | 0 mm | - | 798 W/m² | - |
| 1777821310 | 17.22° C | 51% | 1021.9 hPa | 0 mm | - | 789 W/m² | - |
| 1777821006 | 16.67° C | 57% | 1021.9 hPa | 0 mm | - | 757 W/m² | - |
| 1777820703 | 16.67° C | 52% | 1022 hPa | 0 mm | - | 775 W/m² | - |
| 1777820398 | 16.67° C | 53% | 1022 hPa | 0 mm | - | 767 W/m² | - |
| 1777820097 | 17.22° C | 54% | 1022.1 hPa | 0 mm | - | 771 W/m² | - |
| 1777819794 | 16.67° C | 54% | 1022.1 hPa | 0 mm | - | 757 W/m² | - |
| 1777819491 | 16.67° C | 57% | 1022.1 hPa | 0 mm | - | 742 W/m² | - |
| 1777819189 | 16.11° C | 57% | 1022.4 hPa | 0 mm | - | 692 W/m² | - |
| 1777818885 | 15° C | 63% | 1022.2 hPa | 0 mm | - | 674 W/m² | - |
| 1777818581 | 15.56° C | 60% | 1022.1 hPa | 0 mm | - | 657 W/m² | - |
| 1777818279 | 15° C | 67% | 1021.8 hPa | 0 mm | - | 634 W/m² | - |
| 1777817974 | 14.44° C | 67% | 1021.9 hPa | 0 mm | - | 596 W/m² | - |
| 1777817672 | 15° C | 71% | 1021.9 hPa | 0 mm | - | 537 W/m² | - |
* Rain latest hour (hover to see other rain measurements)
** Current wind speed in m/s (hover to see current wind gust speed)